createdAt,value
2019-02-21T00:00:54.358Z,4.10
2019-02-21T00:03:53.941Z,4.30
2019-02-21T00:06:42.958Z,4.17
2019-02-21T00:09:44.301Z,3.95
2019-02-21T00:12:18.819Z,3.98
2019-02-21T00:14:56.116Z,4.17
2019-02-21T00:17:32.673Z,4.12
2019-02-21T00:20:23.941Z,4.42
2019-02-21T00:23:00.486Z,4.60
2019-02-21T00:25:38.470Z,4.53
2019-02-21T00:28:16.000Z,3.98
2019-02-21T00:30:52.035Z,3.62
2019-02-21T00:33:28.293Z,4.37
2019-02-21T00:36:04.617Z,4.00
2019-02-21T00:38:40.473Z,4.58
2019-02-21T00:41:17.035Z,3.90
2019-02-21T00:43:53.117Z,4.22
2019-02-21T00:46:29.769Z,4.62
2019-02-21T00:49:05.808Z,4.00
2019-02-21T00:51:43.500Z,4.22
2019-02-21T00:54:19.999Z,3.80
2019-02-21T00:56:56.863Z,4.17
2019-02-21T00:59:32.860Z,4.08
2019-02-21T01:02:09.773Z,4.00
2019-02-21T01:04:46.056Z,3.98
2019-02-21T01:07:23.206Z,4.53
2019-02-21T01:09:59.858Z,4.03
2019-02-21T01:12:35.663Z,3.75
2019-02-21T01:15:12.175Z,3.62
2019-02-21T01:17:49.066Z,3.75
2019-02-21T01:20:25.526Z,3.60
2019-02-21T01:23:01.915Z,3.98
2019-02-21T01:25:38.558Z,3.70
2019-02-21T01:28:14.753Z,3.87
2019-02-21T01:30:57.022Z,4.17
2019-02-21T01:33:28.000Z,4.00
2019-02-21T01:36:03.837Z,3.95
2019-02-21T01:38:41.510Z,3.58
2019-02-21T01:41:18.705Z,3.92
2019-02-21T01:43:54.913Z,3.70
2019-02-21T01:46:31.437Z,4.22
2019-02-21T01:49:08.116Z,3.75
2019-02-21T01:51:44.258Z,3.60
2019-02-21T01:54:19.989Z,3.60
2019-02-21T01:56:56.176Z,3.85
2019-02-21T01:59:32.579Z,3.75
2019-02-21T02:02:08.804Z,3.37
2019-02-21T02:04:45.048Z,3.52
2019-02-21T02:07:21.745Z,3.50
2019-02-21T02:09:59.062Z,3.58
2019-02-21T02:12:35.488Z,3.40
2019-02-21T02:15:12.066Z,3.98
2019-02-21T02:17:48.544Z,3.87
2019-02-21T02:20:25.405Z,3.37
2019-02-21T02:23:01.395Z,3.40
2019-02-21T02:25:38.470Z,3.45
2019-02-21T02:28:15.029Z,3.27
2019-02-21T02:30:53.274Z,3.33
2019-02-21T02:33:29.323Z,3.98
2019-02-21T02:36:09.756Z,3.22
2019-02-21T02:38:46.570Z,3.35
2019-02-21T02:41:22.825Z,3.67
2019-02-21T02:43:59.160Z,3.22
2019-02-21T02:46:35.734Z,3.60
2019-02-21T02:49:11.830Z,3.12
2019-02-21T02:51:47.949Z,3.65
2019-02-21T02:54:24.778Z,3.75
2019-02-21T02:57:15.274Z,3.75
2019-02-21T02:59:56.999Z,3.58
2019-02-21T03:02:40.262Z,3.83
2019-02-21T03:05:15.946Z,3.15
2019-02-21T03:07:55.912Z,3.30
2019-02-21T03:10:32.206Z,3.77
2019-02-21T03:13:08.368Z,3.40
2019-02-21T03:15:44.233Z,3.08
2019-02-21T03:18:20.584Z,2.83
2019-02-21T03:20:56.854Z,3.00
2019-02-21T03:23:33.798Z,3.65
2019-02-21T03:26:11.325Z,3.00
2019-02-21T03:28:47.725Z,3.12
2019-02-21T03:31:23.514Z,3.42
2019-02-21T03:33:59.387Z,3.83
2019-02-21T03:36:35.384Z,3.37
2019-02-21T03:39:12.773Z,3.67
2019-02-21T03:41:49.657Z,3.62
2019-02-21T03:44:26.101Z,3.42
2019-02-21T03:47:02.462Z,3.40
2019-02-21T03:49:39.056Z,3.80
2019-02-21T03:52:15.404Z,3.42
2019-02-21T03:54:53.189Z,3.40
2019-02-21T03:57:29.166Z,3.27
2019-02-21T04:00:06.897Z,3.40
2019-02-21T04:02:43.583Z,3.20
2019-02-21T04:05:19.496Z,3.45
2019-02-21T04:07:55.555Z,3.27
2019-02-21T04:10:33.055Z,3.30
2019-02-21T04:13:09.572Z,3.20
2019-02-21T04:15:46.556Z,3.33
2019-02-21T04:18:22.938Z,2.58
2019-02-21T04:20:59.685Z,3.30
2019-02-21T04:23:35.881Z,3.58
2019-02-21T04:26:12.956Z,3.10
2019-02-21T04:28:49.727Z,3.25
2019-02-21T04:31:26.161Z,3.12
2019-02-21T04:34:02.267Z,2.90
2019-02-21T04:36:38.118Z,3.02
2019-02-21T04:39:14.289Z,3.17
2019-02-21T04:41:51.248Z,3.10
2019-02-21T04:44:27.132Z,3.12
2019-02-21T04:47:03.339Z,3.17
2019-02-21T04:49:39.007Z,3.50
2019-02-21T04:52:15.900Z,2.98
2019-02-21T04:54:52.376Z,3.30
2019-02-21T04:57:29.083Z,2.90
2019-02-21T05:00:07.648Z,3.10
2019-02-21T05:02:43.916Z,3.40
2019-02-21T05:05:20.206Z,3.22
2019-02-21T05:07:57.777Z,3.05
2019-02-21T05:10:33.685Z,3.70
2019-02-21T05:13:10.071Z,3.02
2019-02-21T05:15:45.901Z,3.27
2019-02-21T05:18:22.419Z,2.80
2019-02-21T05:20:58.493Z,3.37
2019-02-21T05:23:36.781Z,2.85
2019-02-21T05:26:16.478Z,3.10
2019-02-21T05:28:52.277Z,2.62
2019-02-21T05:31:42.272Z,3.20
2019-02-21T05:34:47.552Z,2.72
2019-02-21T05:37:41.359Z,3.55
2019-02-21T05:40:52.415Z,3.20
2019-02-21T05:43:45.814Z,3.55
2019-02-21T05:46:50.562Z,3.05
2019-02-21T05:49:51.854Z,3.05
2019-02-21T05:52:37.233Z,3.17
2019-02-21T05:55:19.609Z,3.27
2019-02-21T05:58:01.699Z,3.30
2019-02-21T06:00:59.564Z,3.50
2019-02-21T06:03:49.765Z,3.77
2019-02-21T06:06:43.523Z,3.17
2019-02-21T06:09:28.766Z,2.85
2019-02-21T06:12:16.446Z,3.50
2019-02-21T06:15:08.584Z,3.67
2019-02-21T06:18:09.898Z,3.52
2019-02-21T06:20:59.168Z,4.20
2019-02-21T06:23:56.882Z,4.62
2019-02-21T06:26:50.318Z,4.00
2019-02-21T06:29:30.231Z,6.40
2019-02-21T06:32:13.834Z,5.65
2019-02-21T06:34:44.793Z,5.12
2019-02-21T06:37:21.313Z,4.20
2019-02-21T06:39:57.310Z,4.33
2019-02-21T06:42:34.306Z,4.37
2019-02-21T06:45:12.402Z,4.20
2019-02-21T06:47:49.924Z,4.53
2019-02-21T06:50:27.128Z,4.35
2019-02-21T06:53:03.650Z,4.47
2019-02-21T06:55:39.537Z,3.80
2019-02-21T06:58:16.488Z,4.00
2019-02-21T07:00:53.040Z,4.03
2019-02-21T07:03:29.127Z,4.33
2019-02-21T07:06:05.584Z,3.52
2019-02-21T07:08:41.949Z,3.87
2019-02-21T07:11:17.885Z,3.45
2019-02-21T07:13:54.677Z,3.30
2019-02-21T07:16:31.306Z,3.80
2019-02-21T07:19:07.628Z,3.30
2019-02-21T07:21:44.495Z,3.62
2019-02-21T07:24:20.631Z,6.42
2019-02-21T07:26:56.757Z,8.73
2019-02-21T07:29:33.093Z,6.00
2019-02-21T07:32:08.893Z,5.50
2019-02-21T07:34:45.393Z,5.03
2019-02-21T07:37:21.299Z,5.22
2019-02-21T07:39:58.344Z,4.33
2019-02-21T07:42:35.221Z,5.10
2019-02-21T07:45:12.010Z,4.90
2019-02-21T07:47:48.400Z,4.92
2019-02-21T07:50:24.273Z,4.60
2019-02-21T07:53:02.695Z,4.53
2019-02-21T07:55:38.431Z,3.70
2019-02-21T07:58:14.627Z,3.98
2019-02-21T08:00:53.939Z,4.25
2019-02-21T08:03:32.171Z,3.98
2019-02-21T08:06:06.622Z,3.62
2019-02-21T08:08:45.012Z,3.85
2019-02-21T08:11:21.747Z,3.75
2019-02-21T08:13:58.749Z,3.93
2019-02-21T08:16:35.562Z,4.17
2019-02-21T08:19:12.340Z,3.80
2019-02-21T08:21:49.384Z,3.52
2019-02-21T08:24:26.116Z,3.62
2019-02-21T08:27:02.069Z,3.83
2019-02-21T08:29:38.179Z,4.80
2019-02-21T08:32:16.016Z,3.60
2019-02-21T08:34:53.421Z,3.83
2019-02-21T08:37:29.143Z,3.70
2019-02-21T08:40:05.949Z,3.70
2019-02-21T08:42:41.982Z,3.90
2019-02-21T08:45:18.427Z,4.23
2019-02-21T08:47:54.821Z,3.40
2019-02-21T08:50:31.021Z,3.75
2019-02-21T08:53:07.748Z,3.37
2019-02-21T08:55:43.896Z,3.17
2019-02-21T08:58:20.188Z,3.47
2019-02-21T09:00:56.550Z,3.50
2019-02-21T09:03:33.146Z,3.35
2019-02-21T09:06:09.568Z,3.67
2019-02-21T09:08:46.173Z,3.60
2019-02-21T09:11:23.328Z,3.95
2019-02-21T09:13:59.640Z,3.22
2019-02-21T09:16:35.404Z,3.15
2019-02-21T09:19:12.230Z,3.58
2019-02-21T09:21:48.277Z,3.60
2019-02-21T09:24:37.391Z,3.40
2019-02-21T09:27:02.557Z,3.58
2019-02-21T09:29:38.933Z,3.70
2019-02-21T09:32:15.578Z,4.22
2019-02-21T09:34:51.637Z,3.85
2019-02-21T09:37:27.449Z,4.30
2019-02-21T09:40:05.745Z,4.03
2019-02-21T09:42:42.029Z,3.98
2019-02-21T09:45:18.756Z,3.80
2019-02-21T09:47:54.561Z,4.00
2019-02-21T09:50:31.557Z,4.28
2019-02-21T09:53:07.451Z,4.37
2019-02-21T09:55:43.289Z,4.58
2019-02-21T09:58:19.735Z,4.67
2019-02-21T10:00:57.014Z,4.22
2019-02-21T10:03:33.802Z,4.15
2019-02-21T10:06:11.268Z,4.00
2019-02-21T10:08:47.363Z,4.47
2019-02-21T10:11:24.555Z,4.10
2019-02-21T10:14:00.800Z,3.83
2019-02-21T10:16:37.799Z,5.15
2019-02-21T10:19:13.715Z,3.90
2019-02-21T10:21:50.829Z,4.15
2019-02-21T10:24:27.160Z,4.40
2019-02-21T10:27:03.867Z,4.97
2019-02-21T10:29:40.313Z,3.95
2019-02-21T10:32:17.117Z,4.17
2019-02-21T10:34:53.167Z,4.05
2019-02-21T10:37:29.976Z,4.37
2019-02-21T10:40:08.324Z,3.77
2019-02-21T10:42:44.776Z,4.12
2019-02-21T10:45:20.828Z,4.40
2019-02-21T10:47:56.744Z,3.83
2019-02-21T10:50:32.834Z,4.40
2019-02-21T10:53:09.347Z,4.45
2019-02-21T10:55:48.015Z,4.08
2019-02-21T10:58:24.174Z,4.08
2019-02-21T11:01:00.001Z,4.28
2019-02-21T11:03:36.745Z,4.10
2019-02-21T11:06:12.616Z,4.08
2019-02-21T11:08:48.785Z,3.90
2019-02-21T11:11:25.228Z,3.73
2019-02-21T11:14:00.931Z,3.67
2019-02-21T11:16:37.236Z,4.08
2019-02-21T11:19:13.598Z,3.87
2019-02-21T11:21:49.717Z,3.85
2019-02-21T11:24:26.505Z,4.00
2019-02-21T11:27:02.936Z,3.83
2019-02-21T11:29:38.852Z,3.60
2019-02-21T11:32:16.124Z,3.92
2019-02-21T11:34:53.480Z,3.60
2019-02-21T11:37:29.330Z,3.80
2019-02-21T11:40:07.209Z,4.20
2019-02-21T11:42:43.930Z,3.37
2019-02-21T11:45:20.994Z,3.67
2019-02-21T11:47:57.583Z,4.00
2019-02-21T11:50:35.008Z,3.80
2019-02-21T11:53:11.163Z,4.03
2019-02-21T11:55:47.478Z,3.90
2019-02-21T11:58:23.332Z,3.72
2019-02-21T12:01:00.393Z,3.67
2019-02-21T12:03:36.656Z,3.80
2019-02-21T12:06:16.032Z,3.55
2019-02-21T12:08:51.971Z,3.95
2019-02-21T12:11:28.882Z,3.83
2019-02-21T12:14:05.316Z,4.15
2019-02-21T12:16:41.508Z,3.70
2019-02-21T12:19:17.549Z,4.05
2019-02-21T12:21:59.012Z,3.42
2019-02-21T12:24:32.840Z,3.65
2019-02-21T12:27:08.514Z,3.80
2019-02-21T12:29:45.484Z,3.85
2019-02-21T12:32:22.079Z,3.45
2019-02-21T12:34:57.849Z,3.85
2019-02-21T12:37:34.889Z,4.12
2019-02-21T12:40:13.240Z,4.30
2019-02-21T12:42:49.076Z,3.52
2019-02-21T12:45:25.206Z,4.47
2019-02-21T12:48:02.021Z,3.87
2019-02-21T12:50:44.201Z,3.80
2019-02-21T12:53:17.104Z,3.30
2019-02-21T12:55:52.976Z,4.00
2019-02-21T12:58:29.814Z,3.62
2019-02-21T13:01:06.357Z,3.58
2019-02-21T13:03:43.871Z,3.50
2019-02-21T13:06:20.216Z,3.50
2019-02-21T13:08:56.577Z,3.27
2019-02-21T13:11:32.700Z,3.60
2019-02-21T13:14:08.724Z,3.98
2019-02-21T13:16:45.072Z,3.52
2019-02-21T13:19:22.286Z,3.33
2019-02-21T13:21:58.948Z,3.50
2019-02-21T13:24:36.135Z,3.72
2019-02-21T13:27:12.860Z,3.70
2019-02-21T13:29:50.032Z,3.60
2019-02-21T13:32:26.037Z,3.37
2019-02-21T13:35:02.585Z,3.58
2019-02-21T13:37:39.598Z,4.03
2019-02-21T13:40:16.504Z,3.50
2019-02-21T13:42:52.620Z,3.83
2019-02-21T13:45:29.924Z,3.12
2019-02-21T13:48:06.497Z,3.42
2019-02-21T13:50:44.776Z,3.90
2019-02-21T13:53:21.057Z,3.47
2019-02-21T13:55:57.564Z,3.35
2019-02-21T13:58:33.686Z,3.55
2019-02-21T14:01:11.079Z,3.45
2019-02-21T14:03:47.632Z,2.98
2019-02-21T14:06:23.681Z,3.40
2019-02-21T14:09:00.289Z,3.30
2019-02-21T14:11:36.531Z,3.30
2019-02-21T14:14:12.891Z,3.45
2019-02-21T14:16:48.897Z,3.20
2019-02-21T14:19:25.692Z,3.67
2019-02-21T14:22:02.226Z,3.00
2019-02-21T14:24:39.900Z,3.65
2019-02-21T14:27:16.395Z,3.80
2019-02-21T14:29:52.639Z,3.50
2019-02-21T14:32:28.453Z,3.72
2019-02-21T14:35:04.659Z,3.47
2019-02-21T14:37:40.632Z,3.55
2019-02-21T14:40:17.288Z,3.40
2019-02-21T14:42:54.162Z,3.20
2019-02-21T14:45:30.730Z,3.42
2019-02-21T14:48:06.942Z,3.33
2019-02-21T14:50:43.359Z,3.27
2019-02-21T14:53:20.768Z,3.33
2019-02-21T14:55:57.216Z,3.52
2019-02-21T14:58:33.809Z,3.47
2019-02-21T15:01:09.950Z,3.62
2019-02-21T15:03:45.637Z,3.80
2019-02-21T15:06:26.957Z,3.80
2019-02-21T15:09:01.181Z,2.93
2019-02-21T15:11:38.029Z,3.60
2019-02-21T15:14:14.665Z,3.30
2019-02-21T15:16:51.015Z,3.23
2019-02-21T15:19:27.653Z,3.20
2019-02-21T15:22:04.061Z,3.20
2019-02-21T15:24:41.150Z,3.03
2019-02-21T15:27:17.797Z,2.90
2019-02-21T15:29:56.679Z,3.40
2019-02-21T15:32:32.440Z,2.98
2019-02-21T15:35:09.896Z,2.75
2019-02-21T15:37:46.137Z,3.37
2019-02-21T15:40:22.618Z,3.47
2019-02-21T15:42:59.320Z,3.00
2019-02-21T15:45:36.238Z,2.98
2019-02-21T15:48:12.827Z,3.22
2019-02-21T15:50:49.577Z,3.08
2019-02-21T15:53:25.463Z,3.08
2019-02-21T15:56:01.544Z,3.12
2019-02-21T15:58:37.780Z,3.33
2019-02-21T16:01:14.370Z,3.58
2019-02-21T16:03:50.335Z,3.60
2019-02-21T16:06:27.304Z,3.50
2019-02-21T16:09:15.616Z,4.05
2019-02-21T16:11:43.061Z,3.50
2019-02-21T16:14:18.765Z,3.85
2019-02-21T16:16:54.821Z,3.67
2019-02-21T16:19:30.547Z,4.40
2019-02-21T16:22:07.252Z,3.87
2019-02-21T16:24:44.098Z,4.10
2019-02-21T16:27:19.933Z,4.00
2019-02-21T16:29:55.923Z,3.98
2019-02-21T16:32:32.710Z,4.35
2019-02-21T16:35:09.773Z,4.28
2019-02-21T16:37:45.988Z,4.37
2019-02-21T16:40:22.207Z,4.37
2019-02-21T16:42:58.416Z,4.40
2019-02-21T16:45:43.600Z,4.42
2019-02-21T16:48:12.957Z,4.30
2019-02-21T16:50:49.317Z,4.35
2019-02-21T16:53:25.504Z,3.85
2019-02-21T16:56:01.398Z,4.22
2019-02-21T16:58:38.223Z,3.80
2019-02-21T17:01:14.764Z,4.05
2019-02-21T17:03:51.733Z,4.70
2019-02-21T17:06:28.236Z,4.33
2019-02-21T17:09:07.353Z,3.95
2019-02-21T17:11:44.209Z,4.20
2019-02-21T17:14:20.144Z,3.92
2019-02-21T17:16:56.758Z,3.60
2019-02-21T17:19:32.517Z,4.17
2019-02-21T17:22:08.656Z,4.40
2019-02-21T17:24:45.437Z,4.08
2019-02-21T17:27:21.601Z,3.83
2019-02-21T17:29:59.282Z,4.10
2019-02-21T17:32:35.451Z,4.22
2019-02-21T17:35:11.834Z,4.37
2019-02-21T17:37:48.001Z,5.27
2019-02-21T17:40:24.940Z,4.72
2019-02-21T17:43:01.490Z,5.37
2019-02-21T17:45:37.581Z,4.87
2019-02-21T17:48:13.857Z,4.80
2019-02-21T17:50:49.696Z,4.75
2019-02-21T17:53:25.676Z,4.70
2019-02-21T17:56:02.534Z,5.12
2019-02-21T17:58:39.221Z,4.67
2019-02-21T18:01:15.760Z,4.45
2019-02-21T18:03:52.631Z,4.87
2019-02-21T18:06:29.003Z,4.60
2019-02-21T18:09:05.424Z,4.35
2019-02-21T18:11:41.925Z,4.35
2019-02-21T18:14:17.627Z,4.75
2019-02-21T18:16:54.048Z,4.20
2019-02-21T18:19:30.558Z,5.10
2019-02-21T18:22:07.077Z,4.53
2019-02-21T18:24:43.283Z,5.08
2019-02-21T18:27:20.305Z,5.30
2019-02-21T18:29:56.945Z,4.90
2019-02-21T18:32:33.327Z,5.25
2019-02-21T18:35:10.431Z,4.47
2019-02-21T18:37:47.969Z,5.20
2019-02-21T18:40:24.150Z,4.95
2019-02-21T18:43:00.564Z,5.40
2019-02-21T18:45:37.071Z,4.80
2019-02-21T18:48:13.273Z,4.62
2019-02-21T18:50:49.047Z,4.22
2019-02-21T18:53:25.512Z,5.43
2019-02-21T18:56:09.713Z,5.13
2019-02-21T18:58:53.022Z,4.72
2019-02-21T19:01:29.118Z,4.08
2019-02-21T19:04:04.841Z,5.00
2019-02-21T19:06:41.248Z,4.60
2019-02-21T19:09:17.713Z,4.72
2019-02-21T19:11:54.052Z,4.57
2019-02-21T19:14:31.968Z,3.92
2019-02-21T19:17:08.328Z,3.77
2019-02-21T19:19:44.756Z,4.47
2019-02-21T19:22:21.172Z,4.42
2019-02-21T19:24:57.866Z,4.85
2019-02-21T19:27:37.071Z,4.45
2019-02-21T19:30:35.881Z,4.55
2019-02-21T19:33:12.433Z,4.35
2019-02-21T19:35:48.682Z,4.83
2019-02-21T19:38:25.844Z,4.60
2019-02-21T19:41:02.425Z,5.00
2019-02-21T19:43:38.516Z,5.00
2019-02-21T19:46:14.728Z,4.65
2019-02-21T19:48:50.850Z,4.35
2019-02-21T19:51:27.156Z,4.55
2019-02-21T19:54:03.051Z,4.53
2019-02-21T19:56:39.534Z,4.10
2019-02-21T19:59:15.589Z,4.03
2019-02-21T20:01:52.154Z,4.35
2019-02-21T20:04:28.252Z,5.10
2019-02-21T20:07:05.027Z,5.35
2019-02-21T20:09:41.371Z,5.05
2019-02-21T20:12:18.759Z,5.10
2019-02-21T20:14:55.306Z,5.30
2019-02-21T20:17:31.495Z,5.53
2019-02-21T20:20:08.599Z,5.00
2019-02-21T20:22:45.110Z,5.50
2019-02-21T20:25:21.277Z,5.17
2019-02-21T20:27:58.277Z,5.55
2019-02-21T20:30:35.144Z,5.40
2019-02-21T20:33:11.265Z,5.37
2019-02-21T20:35:48.039Z,5.83
2019-02-21T20:38:31.796Z,5.08
2019-02-21T20:41:02.624Z,5.42
2019-02-21T20:43:39.301Z,4.87
2019-02-21T20:46:15.832Z,4.72
2019-02-21T20:48:53.137Z,4.97
2019-02-21T20:51:29.364Z,5.07
2019-02-21T20:54:05.648Z,5.20
2019-02-21T20:56:41.960Z,5.37
2019-02-21T20:59:17.789Z,5.03
2019-02-21T21:01:54.641Z,4.80
2019-02-21T21:04:30.662Z,5.33
2019-02-21T21:07:06.826Z,5.05
2019-02-21T21:09:43.482Z,4.90
2019-02-21T21:12:19.453Z,5.10
2019-02-21T21:14:56.253Z,4.95
2019-02-21T21:17:32.943Z,5.53
2019-02-21T21:20:16.511Z,4.62
2019-02-21T21:22:48.865Z,5.45
2019-02-21T21:25:25.550Z,5.60
2019-02-21T21:28:01.539Z,5.53
2019-02-21T21:30:37.310Z,5.58
2019-02-21T21:33:13.869Z,6.70
2019-02-21T21:35:50.654Z,5.08
2019-02-21T21:38:26.585Z,5.47
2019-02-21T21:41:03.397Z,5.15
2019-02-21T21:43:40.244Z,5.30
2019-02-21T21:46:16.732Z,5.05
2019-02-21T21:48:53.284Z,5.55
2019-02-21T21:51:29.864Z,5.22
2019-02-21T21:54:06.838Z,5.30
2019-02-21T21:56:44.241Z,4.87
2019-02-21T21:59:20.702Z,5.47
2019-02-21T22:01:56.702Z,5.92
2019-02-21T22:04:32.703Z,5.72
2019-02-21T22:07:09.724Z,5.45
2019-02-21T22:09:46.065Z,4.78
2019-02-21T22:12:21.870Z,5.17
2019-02-21T22:14:58.948Z,5.05
2019-02-21T22:17:35.085Z,5.70
2019-02-21T22:20:11.956Z,5.58
2019-02-21T22:22:48.965Z,5.87
2019-02-21T22:25:26.722Z,4.95
2019-02-21T22:28:03.406Z,5.70
2019-02-21T22:30:40.084Z,5.62
2019-02-21T22:33:17.136Z,5.75
2019-02-21T22:35:53.378Z,5.60
2019-02-21T22:38:30.717Z,5.75
2019-02-21T22:41:07.748Z,5.95
2019-02-21T22:43:44.533Z,5.65
2019-02-21T22:46:21.004Z,6.08
2019-02-21T22:48:57.918Z,5.35
2019-02-21T22:51:33.845Z,5.28
2019-02-21T22:54:14.664Z,5.63
2019-02-21T22:56:56.464Z,5.08
2019-02-21T22:59:34.405Z,5.00
2019-02-21T23:02:13.563Z,6.53
2019-02-21T23:05:17.404Z,6.28
2019-02-21T23:08:12.381Z,6.33
2019-02-21T23:10:52.606Z,5.87
2019-02-21T23:13:29.085Z,5.83
2019-02-21T23:16:05.552Z,6.28
2019-02-21T23:18:41.705Z,5.80
2019-02-21T23:21:18.145Z,5.45
2019-02-21T23:23:54.446Z,5.42
2019-02-21T23:26:32.120Z,6.33
2019-02-21T23:29:08.514Z,5.50
2019-02-21T23:31:45.454Z,6.50
2019-02-21T23:34:36.692Z,5.95
2019-02-21T23:37:13.187Z,5.50
2019-02-21T23:39:49.633Z,5.55
2019-02-21T23:42:26.072Z,6.22
2019-02-21T23:45:02.450Z,6.00
2019-02-21T23:47:49.096Z,5.87
2019-02-21T23:50:16.965Z,5.47
2019-02-21T23:52:53.828Z,6.27
2019-02-21T23:55:30.078Z,6.03
2019-02-21T23:58:07.389Z,6.45
